sensor_id;sensor_type;location;lat;lon;timestamp;pressure;altitude;pressure_sealevel;temperature;humidity
38912;BME280;28444;48.056;14.408;2023-05-08T00:02:08;98051.75;;;8.73;76.93
38912;BME280;28444;48.056;14.408;2023-05-08T00:04:55;98057.53;;;8.69;76.94
38912;BME280;28444;48.056;14.408;2023-05-08T00:07:42;98058.06;;;8.67;76.18
38912;BME280;28444;48.056;14.408;2023-05-08T00:10:29;98053.56;;;8.78;75.79
38912;BME280;28444;48.056;14.408;2023-05-08T00:13:16;98059.75;;;8.78;76.67
38912;BME280;28444;48.056;14.408;2023-05-08T00:16:03;98052.81;;;8.70;76.27
38912;BME280;28444;48.056;14.408;2023-05-08T00:18:50;98074.75;;;8.64;76.45
38912;BME280;28444;48.056;14.408;2023-05-08T00:21:39;98055.75;;;8.72;76.20
38912;BME280;28444;48.056;14.408;2023-05-08T00:24:26;98070.44;;;8.68;76.11
38912;BME280;28444;48.056;14.408;2023-05-08T00:27:12;98064.53;;;8.85;76.18
38912;BME280;28444;48.056;14.408;2023-05-08T00:30:00;98058.91;;;8.83;76.02
38912;BME280;28444;48.056;14.408;2023-05-08T00:32:47;98054.13;;;8.76;76.35
38912;BME280;28444;48.056;14.408;2023-05-08T00:35:34;98069.19;;;8.70;76.71
38912;BME280;28444;48.056;14.408;2023-05-08T00:38:21;98055.97;;;8.81;76.17
38912;BME280;28444;48.056;14.408;2023-05-08T00:41:08;98057.47;;;8.90;75.33
38912;BME280;28444;48.056;14.408;2023-05-08T00:43:55;98054.66;;;8.75;75.92
38912;BME280;28444;48.056;14.408;2023-05-08T00:46:43;98054.22;;;8.63;76.69
38912;BME280;28444;48.056;14.408;2023-05-08T00:49:30;98064.84;;;8.74;75.94
38912;BME280;28444;48.056;14.408;2023-05-08T00:52:18;98063.94;;;8.72;76.05
38912;BME280;28444;48.056;14.408;2023-05-08T00:55:05;98062.66;;;8.73;75.98
38912;BME280;28444;48.056;14.408;2023-05-08T00:57:52;98073.91;;;8.69;75.70
38912;BME280;28444;48.056;14.408;2023-05-08T01:00:40;98071.88;;;8.62;76.39
38912;BME280;28444;48.056;14.408;2023-05-08T01:03:29;98067.72;;;8.68;76.35
38912;BME280;28444;48.056;14.408;2023-05-08T01:06:18;98061.53;;;8.68;76.70
38912;BME280;28444;48.056;14.408;2023-05-08T01:09:05;98061.19;;;8.72;75.78
38912;BME280;28444;48.056;14.408;2023-05-08T01:12:21;98055.94;;;8.74;76.30
38912;BME280;28444;48.056;14.408;2023-05-08T01:15:18;98064.13;;;8.81;76.87
38912;BME280;28444;48.056;14.408;2023-05-08T01:21:15;98069.59;;;8.81;76.22
38912;BME280;28444;48.056;14.408;2023-05-08T01:33:07;98079.69;;;8.94;75.48
38912;BME280;28444;48.056;14.408;2023-05-08T01:36:24;98084.94;;;8.92;75.46
38912;BME280;28444;48.056;14.408;2023-05-08T01:42:17;98094.69;;;8.80;75.78
38912;BME280;28444;48.056;14.408;2023-05-08T01:45:11;98106.03;;;8.91;75.59
38912;BME280;28444;48.056;14.408;2023-05-08T01:48:03;98108.38;;;8.87;75.28
38912;BME280;28444;48.056;14.408;2023-05-08T01:50:57;98111.63;;;8.86;75.87
38912;BME280;28444;48.056;14.408;2023-05-08T01:53:50;98114.72;;;8.82;76.27
38912;BME280;28444;48.056;14.408;2023-05-08T01:56:39;98103.28;;;8.91;75.24
38912;BME280;28444;48.056;14.408;2023-05-08T01:59:30;98098.75;;;8.94;75.41
38912;BME280;28444;48.056;14.408;2023-05-08T02:02:19;98120.34;;;8.84;75.70
38912;BME280;28444;48.056;14.408;2023-05-08T02:05:07;98116.38;;;8.93;75.54
38912;BME280;28444;48.056;14.408;2023-05-08T02:07:55;98111.13;;;8.95;75.38
38912;BME280;28444;48.056;14.408;2023-05-08T02:10:43;98104.97;;;9.02;75.03
38912;BME280;28444;48.056;14.408;2023-05-08T02:13:32;98100.66;;;8.78;75.64
38912;BME280;28444;48.056;14.408;2023-05-08T02:16:20;98106.75;;;8.92;74.96
38912;BME280;28444;48.056;14.408;2023-05-08T02:19:09;98110.88;;;8.85;75.22
38912;BME280;28444;48.056;14.408;2023-05-08T02:21:57;98109.34;;;8.98;75.23
38912;BME280;28444;48.056;14.408;2023-05-08T02:24:45;98116.94;;;8.91;74.43
38912;BME280;28444;48.056;14.408;2023-05-08T02:27:32;98106.91;;;8.86;75.19
38912;BME280;28444;48.056;14.408;2023-05-08T02:30:23;98116.81;;;8.68;75.54
38912;BME280;28444;48.056;14.408;2023-05-08T02:33:12;98108.75;;;8.63;74.99
38912;BME280;28444;48.056;14.408;2023-05-08T02:36:01;98116.06;;;8.68;76.29
38912;BME280;28444;48.056;14.408;2023-05-08T02:38:53;98104.88;;;8.79;75.62
38912;BME280;28444;48.056;14.408;2023-05-08T02:41:41;98109.81;;;8.60;75.86
38912;BME280;28444;48.056;14.408;2023-05-08T02:44:28;98107.03;;;8.52;76.10
38912;BME280;28444;48.056;14.408;2023-05-08T02:47:29;98113.03;;;8.51;75.98
38912;BME280;28444;48.056;14.408;2023-05-08T02:50:31;98116.34;;;8.57;76.23
38912;BME280;28444;48.056;14.408;2023-05-08T02:53:30;98124.13;;;8.53;76.92
38912;BME280;28444;48.056;14.408;2023-05-08T02:59:20;98118.72;;;8.60;76.45
38912;BME280;28444;48.056;14.408;2023-05-08T03:02:13;98122.97;;;8.69;76.98
38912;BME280;28444;48.056;14.408;2023-05-08T03:05:05;98124.34;;;8.83;75.81
38912;BME280;28444;48.056;14.408;2023-05-08T03:07:58;98122.31;;;8.76;76.37
38912;BME280;28444;48.056;14.408;2023-05-08T03:10:50;98124.78;;;8.66;77.01
38912;BME280;28444;48.056;14.408;2023-05-08T03:13:39;98123.28;;;8.86;76.04
38912;BME280;28444;48.056;14.408;2023-05-08T03:16:30;98133.84;;;8.90;77.02
38912;BME280;28444;48.056;14.408;2023-05-08T03:19:26;98128.81;;;8.73;76.54
38912;BME280;28444;48.056;14.408;2023-05-08T03:22:14;98126.38;;;8.90;75.91
38912;BME280;28444;48.056;14.408;2023-05-08T03:25:04;98130.09;;;8.72;75.71
38912;BME280;28444;48.056;14.408;2023-05-08T03:27:52;98130.19;;;8.87;74.78
38912;BME280;28444;48.056;14.408;2023-05-08T03:30:41;98131.84;;;8.90;75.71
38912;BME280;28444;48.056;14.408;2023-05-08T03:33:29;98122.13;;;8.82;75.88
38912;BME280;28444;48.056;14.408;2023-05-08T03:36:17;98134.66;;;8.77;75.97
38912;BME280;28444;48.056;14.408;2023-05-08T03:39:05;98132.44;;;8.68;76.63
38912;BME280;28444;48.056;14.408;2023-05-08T03:41:54;98142.78;;;8.70;76.50
38912;BME280;28444;48.056;14.408;2023-05-08T03:44:41;98135.56;;;8.72;76.06
38912;BME280;28444;48.056;14.408;2023-05-08T03:47:28;98146.47;;;8.72;76.07
38912;BME280;28444;48.056;14.408;2023-05-08T03:50:16;98140.06;;;8.70;75.73
38912;BME280;28444;48.056;14.408;2023-05-08T03:53:03;98148.25;;;8.70;76.35
38912;BME280;28444;48.056;14.408;2023-05-08T03:55:51;98143.13;;;8.66;75.76
38912;BME280;28444;48.056;14.408;2023-05-08T03:58:47;98145.53;;;8.70;76.06
38912;BME280;28444;48.056;14.408;2023-05-08T04:01:58;98154.25;;;8.68;76.29
38912;BME280;28444;48.056;14.408;2023-05-08T04:04:51;98148.13;;;8.75;76.48
38912;BME280;28444;48.056;14.408;2023-05-08T04:07:53;98158.72;;;8.86;75.79
38912;BME280;28444;48.056;14.408;2023-05-08T04:10:48;98163.31;;;8.91;75.14
38912;BME280;28444;48.056;14.408;2023-05-08T04:13:42;98161.59;;;8.81;76.19
38912;BME280;28444;48.056;14.408;2023-05-08T04:16:36;98167.28;;;8.62;76.17
38912;BME280;28444;48.056;14.408;2023-05-08T04:19:27;98170.78;;;8.70;76.76
38912;BME280;28444;48.056;14.408;2023-05-08T04:22:18;98171.91;;;8.75;76.66
38912;BME280;28444;48.056;14.408;2023-05-08T04:25:07;98172.88;;;8.85;75.94
38912;BME280;28444;48.056;14.408;2023-05-08T04:27:57;98178.44;;;8.72;76.20
38912;BME280;28444;48.056;14.408;2023-05-08T04:30:44;98175.47;;;8.62;76.82
38912;BME280;28444;48.056;14.408;2023-05-08T04:33:33;98189.03;;;8.75;77.22
38912;BME280;28444;48.056;14.408;2023-05-08T04:36:21;98193.78;;;8.82;75.66
38912;BME280;28444;48.056;14.408;2023-05-08T04:39:09;98200.50;;;8.81;76.38
38912;BME280;28444;48.056;14.408;2023-05-08T04:41:56;98209.41;;;8.82;76.55
38912;BME280;28444;48.056;14.408;2023-05-08T04:44:48;98205.94;;;8.81;76.85
38912;BME280;28444;48.056;14.408;2023-05-08T04:47:36;98213.41;;;8.81;76.31
38912;BME280;28444;48.056;14.408;2023-05-08T04:50:23;98224.81;;;8.72;76.29
38912;BME280;28444;48.056;14.408;2023-05-08T04:53:11;98214.69;;;8.80;75.69
38912;BME280;28444;48.056;14.408;2023-05-08T04:55:58;98216.19;;;8.67;76.27
38912;BME280;28444;48.056;14.408;2023-05-08T04:58:45;98218.28;;;8.54;77.03
38912;BME280;28444;48.056;14.408;2023-05-08T05:01:32;98218.34;;;8.61;77.26
38912;BME280;28444;48.056;14.408;2023-05-08T05:04:20;98223.34;;;8.50;76.99
38912;BME280;28444;48.056;14.408;2023-05-08T05:07:06;98234.72;;;8.61;77.39
38912;BME280;28444;48.056;14.408;2023-05-08T05:09:53;98231.66;;;8.65;77.06
38912;BME280;28444;48.056;14.408;2023-05-08T05:12:40;98227.00;;;8.73;76.44
38912;BME280;28444;48.056;14.408;2023-05-08T05:15:27;98234.84;;;8.77;76.93
38912;BME280;28444;48.056;14.408;2023-05-08T05:18:14;98230.31;;;8.79;75.77
38912;BME280;28444;48.056;14.408;2023-05-08T05:21:01;98237.28;;;8.88;76.52
38912;BME280;28444;48.056;14.408;2023-05-08T05:23:49;98236.63;;;8.74;76.52
38912;BME280;28444;48.056;14.408;2023-05-08T05:26:35;98244.94;;;8.68;76.83
38912;BME280;28444;48.056;14.408;2023-05-08T05:29:23;98248.41;;;8.90;76.41
38912;BME280;28444;48.056;14.408;2023-05-08T05:32:09;98247.91;;;8.99;75.69
38912;BME280;28444;48.056;14.408;2023-05-08T05:34:57;98248.44;;;8.98;75.66
38912;BME280;28444;48.056;14.408;2023-05-08T05:37:44;98246.97;;;8.97;75.86
38912;BME280;28444;48.056;14.408;2023-05-08T05:40:31;98247.56;;;9.03;75.49
38912;BME280;28444;48.056;14.408;2023-05-08T05:43:18;98247.78;;;9.05;75.80
38912;BME280;28444;48.056;14.408;2023-05-08T05:46:05;98245.78;;;9.05;75.66
38912;BME280;28444;48.056;14.408;2023-05-08T05:48:53;98257.03;;;9.02;76.51
38912;BME280;28444;48.056;14.408;2023-05-08T05:51:39;98259.84;;;9.17;74.96
38912;BME280;28444;48.056;14.408;2023-05-08T05:54:26;98264.31;;;9.07;74.88
38912;BME280;28444;48.056;14.408;2023-05-08T05:57:13;98255.84;;;9.18;74.38
38912;BME280;28444;48.056;14.408;2023-05-08T06:00:02;98257.06;;;9.09;74.66
38912;BME280;28444;48.056;14.408;2023-05-08T06:02:50;98266.25;;;9.20;75.32
38912;BME280;28444;48.056;14.408;2023-05-08T06:05:37;98270.13;;;9.32;74.87
38912;BME280;28444;48.056;14.408;2023-05-08T06:08:24;98268.19;;;9.40;74.53
38912;BME280;28444;48.056;14.408;2023-05-08T06:11:11;98260.94;;;9.43;74.34
38912;BME280;28444;48.056;14.408;2023-05-08T06:13:58;98267.44;;;9.39;74.07
38912;BME280;28444;48.056;14.408;2023-05-08T06:16:44;98269.03;;;9.27;73.46
38912;BME280;28444;48.056;14.408;2023-05-08T06:19:32;98276.72;;;9.36;74.55
38912;BME280;28444;48.056;14.408;2023-05-08T06:22:20;98266.06;;;9.54;73.62
38912;BME280;28444;48.056;14.408;2023-05-08T06:25:13;98269.81;;;9.72;73.83
38912;BME280;28444;48.056;14.408;2023-05-08T06:28:01;98267.50;;;9.83;73.91
38912;BME280;28444;48.056;14.408;2023-05-08T06:30:48;98269.06;;;9.63;73.01
38912;BME280;28444;48.056;14.408;2023-05-08T06:33:35;98264.38;;;9.79;73.65
38912;BME280;28444;48.056;14.408;2023-05-08T06:36:21;98273.53;;;9.89;72.56
38912;BME280;28444;48.056;14.408;2023-05-08T06:39:08;98273.53;;;9.89;71.97
38912;BME280;28444;48.056;14.408;2023-05-08T06:41:55;98282.00;;;9.71;71.82
38912;BME280;28444;48.056;14.408;2023-05-08T06:44:42;98277.16;;;9.84;71.54
38912;BME280;28444;48.056;14.408;2023-05-08T06:47:29;98275.78;;;9.99;71.59
38912;BME280;28444;48.056;14.408;2023-05-08T06:50:16;98272.34;;;10.06;71.65
38912;BME280;28444;48.056;14.408;2023-05-08T06:53:03;98278.09;;;9.95;71.37
38912;BME280;28444;48.056;14.408;2023-05-08T06:55:50;98285.28;;;10.13;71.12
38912;BME280;28444;48.056;14.408;2023-05-08T06:58:37;98278.38;;;10.20;72.24
38912;BME280;28444;48.056;14.408;2023-05-08T07:01:24;98280.75;;;10.23;70.59
38912;BME280;28444;48.056;14.408;2023-05-08T07:04:11;98287.91;;;10.34;70.76
38912;BME280;28444;48.056;14.408;2023-05-08T07:06:58;98295.91;;;10.24;70.39
38912;BME280;28444;48.056;14.408;2023-05-08T07:09:46;98287.38;;;10.28;70.18
38912;BME280;28444;48.056;14.408;2023-05-08T07:12:33;98299.69;;;10.13;70.08
38912;BME280;28444;48.056;14.408;2023-05-08T07:15:19;98295.09;;;10.08;71.04
38912;BME280;28444;48.056;14.408;2023-05-08T07:18:13;98299.09;;;10.07;70.18
38912;BME280;28444;48.056;14.408;2023-05-08T07:21:00;98301.50;;;10.11;70.58
38912;BME280;28444;48.056;14.408;2023-05-08T07:23:47;98304.28;;;10.26;70.27
38912;BME280;28444;48.056;14.408;2023-05-08T07:26:37;98311.50;;;10.16;70.46
38912;BME280;28444;48.056;14.408;2023-05-08T07:29:27;98306.44;;;10.20;70.80
38912;BME280;28444;48.056;14.408;2023-05-08T07:32:14;98314.69;;;10.28;70.89
38912;BME280;28444;48.056;14.408;2023-05-08T07:35:01;98308.88;;;10.31;69.49
38912;BME280;28444;48.056;14.408;2023-05-08T07:37:49;98304.19;;;10.47;71.22
38912;BME280;28444;48.056;14.408;2023-05-08T07:40:35;98307.84;;;10.65;71.39
38912;BME280;28444;48.056;14.408;2023-05-08T07:43:23;98307.63;;;10.48;69.38
38912;BME280;28444;48.056;14.408;2023-05-08T07:46:15;98307.66;;;10.63;70.37
38912;BME280;28444;48.056;14.408;2023-05-08T07:49:03;98306.75;;;10.60;69.29
38912;BME280;28444;48.056;14.408;2023-05-08T07:51:50;98309.47;;;10.53;69.36
38912;BME280;28444;48.056;14.408;2023-05-08T07:54:36;98309.69;;;10.78;69.16
38912;BME280;28444;48.056;14.408;2023-05-08T07:57:23;98314.28;;;10.91;69.58
38912;BME280;28444;48.056;14.408;2023-05-08T08:00:12;98310.09;;;11.05;69.39
38912;BME280;28444;48.056;14.408;2023-05-08T08:03:00;98301.31;;;10.99;67.59
38912;BME280;28444;48.056;14.408;2023-05-08T08:05:48;98307.72;;;11.01;68.17
38912;BME280;28444;48.056;14.408;2023-05-08T08:08:34;98312.63;;;11.11;68.88
38912;BME280;28444;48.056;14.408;2023-05-08T08:11:21;98305.88;;;11.19;67.80
38912;BME280;28444;48.056;14.408;2023-05-08T08:14:09;98307.91;;;11.19;67.43
38912;BME280;28444;48.056;14.408;2023-05-08T08:16:56;98310.25;;;11.22;67.87
38912;BME280;28444;48.056;14.408;2023-05-08T08:19:43;98309.53;;;11.29;67.39
38912;BME280;28444;48.056;14.408;2023-05-08T08:22:30;98304.41;;;11.18;66.53
38912;BME280;28444;48.056;14.408;2023-05-08T08:25:17;98306.97;;;11.24;66.69
38912;BME280;28444;48.056;14.408;2023-05-08T08:28:04;98311.16;;;11.25;67.43
38912;BME280;28444;48.056;14.408;2023-05-08T08:30:50;98295.09;;;11.44;65.65
38912;BME280;28444;48.056;14.408;2023-05-08T08:33:37;98301.94;;;11.76;65.41
38912;BME280;28444;48.056;14.408;2023-05-08T08:36:24;98304.72;;;11.61;64.37
38912;BME280;28444;48.056;14.408;2023-05-08T08:39:12;98311.28;;;11.73;65.24
38912;BME280;28444;48.056;14.408;2023-05-08T08:42:01;98304.66;;;11.76;65.35
38912;BME280;28444;48.056;14.408;2023-05-08T08:44:47;98306.38;;;12.19;64.62
38912;BME280;28444;48.056;14.408;2023-05-08T08:47:35;98309.41;;;12.39;64.24
38912;BME280;28444;48.056;14.408;2023-05-08T08:50:30;98312.59;;;12.52;65.29
38912;BME280;28444;48.056;14.408;2023-05-08T08:53:25;98311.97;;;12.37;62.67
38912;BME280;28444;48.056;14.408;2023-05-08T08:56:14;98309.34;;;12.46;64.41
38912;BME280;28444;48.056;14.408;2023-05-08T08:59:03;98309.97;;;12.62;63.56
38912;BME280;28444;48.056;14.408;2023-05-08T09:01:55;98316.66;;;12.76;62.81
38912;BME280;28444;48.056;14.408;2023-05-08T09:04:42;98305.53;;;12.74;61.70
38912;BME280;28444;48.056;14.408;2023-05-08T09:07:29;98314.88;;;12.71;63.95
38912;BME280;28444;48.056;14.408;2023-05-08T09:10:16;98305.94;;;13.13;62.44
38912;BME280;28444;48.056;14.408;2023-05-08T09:13:03;98315.78;;;13.24;62.17
38912;BME280;28444;48.056;14.408;2023-05-08T09:15:51;98313.84;;;13.34;62.25
38912;BME280;28444;48.056;14.408;2023-05-08T09:18:39;98309.72;;;13.00;61.59
38912;BME280;28444;48.056;14.408;2023-05-08T09:21:26;98308.50;;;12.94;61.88
38912;BME280;28444;48.056;14.408;2023-05-08T09:24:13;98309.09;;;13.35;60.60
38912;BME280;28444;48.056;14.408;2023-05-08T09:27:00;98294.47;;;13.49;60.43
38912;BME280;28444;48.056;14.408;2023-05-08T09:30:00;98300.78;;;13.42;60.41
38912;BME280;28444;48.056;14.408;2023-05-08T09:32:48;98294.47;;;13.49;60.35
38912;BME280;28444;48.056;14.408;2023-05-08T09:35:35;98293.38;;;13.70;60.86
38912;BME280;28444;48.056;14.408;2023-05-08T09:38:38;98293.19;;;13.85;58.79
38912;BME280;28444;48.056;14.408;2023-05-08T09:41:26;98290.03;;;13.71;60.88
38912;BME280;28444;48.056;14.408;2023-05-08T09:44:13;98287.38;;;13.46;60.43
38912;BME280;28444;48.056;14.408;2023-05-08T09:47:23;98279.53;;;13.60;61.07
38912;BME280;28444;48.056;14.408;2023-05-08T09:50:10;98286.34;;;13.59;59.51
38912;BME280;28444;48.056;14.408;2023-05-08T09:52:57;98294.66;;;13.52;62.90
38912;BME280;28444;48.056;14.408;2023-05-08T09:55:47;98282.28;;;13.60;60.38
38912;BME280;28444;48.056;14.408;2023-05-08T09:58:41;98280.56;;;13.82;62.16
38912;BME280;28444;48.056;14.408;2023-05-08T10:01:34;98289.13;;;14.04;59.80
38912;BME280;28444;48.056;14.408;2023-05-08T10:04:35;98277.41;;;14.03;59.65
38912;BME280;28444;48.056;14.408;2023-05-08T10:07:30;98280.34;;;13.70;59.83
38912;BME280;28444;48.056;14.408;2023-05-08T10:10:28;98272.69;;;13.69;61.18
38912;BME280;28444;48.056;14.408;2023-05-08T10:13:16;98269.34;;;13.53;62.17
38912;BME280;28444;48.056;14.408;2023-05-08T10:16:04;98265.97;;;13.62;62.60
38912;BME280;28444;48.056;14.408;2023-05-08T10:18:54;98270.50;;;13.33;62.31
38912;BME280;28444;48.056;14.408;2023-05-08T10:21:57;98262.56;;;13.54;62.64
38912;BME280;28444;48.056;14.408;2023-05-08T10:24:48;98263.53;;;13.32;63.92
38912;BME280;28444;48.056;14.408;2023-05-08T10:27:44;98260.78;;;13.49;63.07
38912;BME280;28444;48.056;14.408;2023-05-08T10:30:33;98257.16;;;13.29;62.29
38912;BME280;28444;48.056;14.408;2023-05-08T10:33:29;98252.41;;;13.05;64.10
38912;BME280;28444;48.056;14.408;2023-05-08T10:36:17;98258.19;;;12.91;64.78
38912;BME280;28444;48.056;14.408;2023-05-08T10:39:04;98260.72;;;12.97;66.12
38912;BME280;28444;48.056;14.408;2023-05-08T10:41:52;98254.41;;;13.29;64.54
38912;BME280;28444;48.056;14.408;2023-05-08T10:44:39;98253.59;;;13.36;64.63
38912;BME280;28444;48.056;14.408;2023-05-08T10:47:35;98246.31;;;13.31;63.99
38912;BME280;28444;48.056;14.408;2023-05-08T10:50:55;98245.59;;;13.48;63.86
38912;BME280;28444;48.056;14.408;2023-05-08T10:54:04;98236.69;;;13.57;64.56
38912;BME280;28444;48.056;14.408;2023-05-08T10:57:07;98238.41;;;13.70;64.17
38912;BME280;28444;48.056;14.408;2023-05-08T10:59:54;98237.31;;;13.83;63.48
38912;BME280;28444;48.056;14.408;2023-05-08T11:02:41;98230.88;;;13.70;64.13
38912;BME280;28444;48.056;14.408;2023-05-08T11:05:28;98237.28;;;13.73;62.16
38912;BME280;28444;48.056;14.408;2023-05-08T11:08:17;98221.91;;;13.70;61.82
38912;BME280;28444;48.056;14.408;2023-05-08T11:11:04;98229.97;;;13.85;64.68
38912;BME280;28444;48.056;14.408;2023-05-08T11:19:53;98217.94;;;14.35;63.67
38912;BME280;28444;48.056;14.408;2023-05-08T11:22:46;98212.69;;;14.56;61.17
38912;BME280;28444;48.056;14.408;2023-05-08T11:25:43;98206.53;;;14.85;59.31
38912;BME280;28444;48.056;14.408;2023-05-08T11:29:07;98195.44;;;15.12;59.33
38912;BME280;28444;48.056;14.408;2023-05-08T11:31:51;98190.94;;;15.65;59.15
38912;BME280;28444;48.056;14.408;2023-05-08T11:37:29;98190.53;;;15.69;56.76
38912;BME280;28444;48.056;14.408;2023-05-08T11:46:54;98178.59;;;15.56;57.88
38912;BME280;28444;48.056;14.408;2023-05-08T11:49:41;98178.88;;;15.80;59.22
38912;BME280;28444;48.056;14.408;2023-05-08T11:52:33;98176.69;;;15.88;56.79
38912;BME280;28444;48.056;14.408;2023-05-08T11:55:21;98167.66;;;15.97;56.22
38912;BME280;28444;48.056;14.408;2023-05-08T11:58:12;98167.09;;;15.89;57.10
38912;BME280;28444;48.056;14.408;2023-05-08T12:00:59;98170.00;;;15.91;57.00
38912;BME280;28444;48.056;14.408;2023-05-08T12:03:46;98171.34;;;15.80;57.87
38912;BME280;28444;48.056;14.408;2023-05-08T12:06:35;98165.94;;;15.82;56.56
38912;BME280;28444;48.056;14.408;2023-05-08T12:09:23;98164.53;;;15.62;57.11
38912;BME280;28444;48.056;14.408;2023-05-08T12:12:10;98168.00;;;15.82;56.23
38912;BME280;28444;48.056;14.408;2023-05-08T12:14:57;98167.09;;;15.99;56.13
38912;BME280;28444;48.056;14.408;2023-05-08T12:17:44;98161.69;;;16.01;54.55
38912;BME280;28444;48.056;14.408;2023-05-08T12:20:31;98156.97;;;16.23;56.38
38912;BME280;28444;48.056;14.408;2023-05-08T12:23:19;98154.47;;;16.58;54.89
38912;BME280;28444;48.056;14.408;2023-05-08T12:26:07;98143.66;;;16.72;54.97
38912;BME280;28444;48.056;14.408;2023-05-08T12:28:54;98148.34;;;16.91;56.61
38912;BME280;28444;48.056;14.408;2023-05-08T12:31:42;98155.03;;;17.09;53.15
38912;BME280;28444;48.056;14.408;2023-05-08T12:34:29;98153.41;;;17.16;52.18
38912;BME280;28444;48.056;14.408;2023-05-08T12:37:26;98150.81;;;17.29;53.05
38912;BME280;28444;48.056;14.408;2023-05-08T12:40:24;98151.47;;;17.40;54.35
38912;BME280;28444;48.056;14.408;2023-05-08T12:43:11;98151.31;;;17.38;52.68
38912;BME280;28444;48.056;14.408;2023-05-08T12:45:58;98153.34;;;17.04;52.93
38912;BME280;28444;48.056;14.408;2023-05-08T12:48:45;98144.81;;;17.00;53.67
38912;BME280;28444;48.056;14.408;2023-05-08T12:51:33;98142.09;;;17.12;54.51
38912;BME280;28444;48.056;14.408;2023-05-08T12:54:30;98140.50;;;17.08;52.82
38912;BME280;28444;48.056;14.408;2023-05-08T12:57:18;98133.81;;;16.90;52.58
38912;BME280;28444;48.056;14.408;2023-05-08T13:00:07;98121.34;;;16.89;53.34
38912;BME280;28444;48.056;14.408;2023-05-08T13:02:54;98124.88;;;17.01;53.94
38912;BME280;28444;48.056;14.408;2023-05-08T13:05:43;98124.22;;;16.91;52.00
38912;BME280;28444;48.056;14.408;2023-05-08T13:08:33;98121.34;;;16.89;53.57
38912;BME280;28444;48.056;14.408;2023-05-08T13:11:28;98119.53;;;16.94;54.07
38912;BME280;28444;48.056;14.408;2023-05-08T13:14:16;98118.94;;;16.95;54.84
38912;BME280;28444;48.056;14.408;2023-05-08T13:17:02;98113.34;;;17.05;54.26
38912;BME280;28444;48.056;14.408;2023-05-08T13:19:49;98111.50;;;16.98;54.52
38912;BME280;28444;48.056;14.408;2023-05-08T13:22:36;98111.66;;;16.78;53.39
38912;BME280;28444;48.056;14.408;2023-05-08T13:25:23;98113.03;;;16.89;53.67
38912;BME280;28444;48.056;14.408;2023-05-08T13:28:10;98112.91;;;16.87;53.76
38912;BME280;28444;48.056;14.408;2023-05-08T13:30:57;98109.56;;;16.89;53.44
38912;BME280;28444;48.056;14.408;2023-05-08T13:33:44;98111.94;;;16.82;54.18
38912;BME280;28444;48.056;14.408;2023-05-08T13:36:31;98105.88;;;16.74;53.49
38912;BME280;28444;48.056;14.408;2023-05-08T13:39:18;98103.53;;;16.49;52.94
38912;BME280;28444;48.056;14.408;2023-05-08T13:42:05;98098.63;;;16.69;53.16
38912;BME280;28444;48.056;14.408;2023-05-08T13:44:51;98104.78;;;16.58;53.14
38912;BME280;28444;48.056;14.408;2023-05-08T13:47:40;98101.06;;;16.53;53.33
38912;BME280;28444;48.056;14.408;2023-05-08T13:50:27;98101.25;;;16.67;52.06
38912;BME280;28444;48.056;14.408;2023-05-08T13:53:14;98100.97;;;16.42;52.71
38912;BME280;28444;48.056;14.408;2023-05-08T13:56:01;98095.13;;;16.47;54.07
38912;BME280;28444;48.056;14.408;2023-05-08T13:58:48;98100.13;;;16.60;54.16
38912;BME280;28444;48.056;14.408;2023-05-08T14:01:36;98105.19;;;16.43;52.07
38912;BME280;28444;48.056;14.408;2023-05-08T14:04:23;98100.63;;;16.26;52.67
38912;BME280;28444;48.056;14.408;2023-05-08T14:07:10;98104.72;;;16.15;52.50
38912;BME280;28444;48.056;14.408;2023-05-08T14:09:57;98103.75;;;16.10;53.77
38912;BME280;28444;48.056;14.408;2023-05-08T14:12:44;98102.97;;;16.20;51.17
38912;BME280;28444;48.056;14.408;2023-05-08T14:15:32;98106.03;;;16.14;52.22
38912;BME280;28444;48.056;14.408;2023-05-08T14:18:23;98100.44;;;16.02;52.22
38912;BME280;28444;48.056;14.408;2023-05-08T14:21:10;98099.34;;;16.17;51.53
38912;BME280;28444;48.056;14.408;2023-05-08T14:23:57;98107.19;;;16.21;53.47
38912;BME280;28444;48.056;14.408;2023-05-08T14:26:44;98095.69;;;16.24;52.01
38912;BME280;28444;48.056;14.408;2023-05-08T14:29:32;98099.03;;;16.23;53.30
38912;BME280;28444;48.056;14.408;2023-05-08T14:32:19;98095.97;;;16.28;53.88
38912;BME280;28444;48.056;14.408;2023-05-08T14:35:06;98092.91;;;16.34;51.82
38912;BME280;28444;48.056;14.408;2023-05-08T14:37:53;98092.97;;;16.46;51.50
38912;BME280;28444;48.056;14.408;2023-05-08T14:40:39;98097.16;;;16.47;50.40
38912;BME280;28444;48.056;14.408;2023-05-08T14:43:26;98091.16;;;16.29;51.17
38912;BME280;28444;48.056;14.408;2023-05-08T14:46:13;98091.31;;;16.31;51.98
38912;BME280;28444;48.056;14.408;2023-05-08T14:49:00;98090.31;;;16.48;51.62
38912;BME280;28444;48.056;14.408;2023-05-08T14:51:47;98080.28;;;16.52;52.94
38912;BME280;28444;48.056;14.408;2023-05-08T14:54:34;98081.72;;;16.53;51.19
38912;BME280;28444;48.056;14.408;2023-05-08T14:57:21;98078.16;;;16.41;52.28
38912;BME280;28444;48.056;14.408;2023-05-08T15:00:09;98085.25;;;16.44;52.49
38912;BME280;28444;48.056;14.408;2023-05-08T15:02:56;98085.13;;;16.21;51.22
38912;BME280;28444;48.056;14.408;2023-05-08T15:05:43;98072.31;;;16.25;51.63
38912;BME280;28444;48.056;14.408;2023-05-08T15:08:30;98077.25;;;16.27;50.92
38912;BME280;28444;48.056;14.408;2023-05-08T15:11:17;98072.75;;;16.22;52.01
38912;BME280;28444;48.056;14.408;2023-05-08T15:14:04;98078.75;;;16.40;52.71
38912;BME280;28444;48.056;14.408;2023-05-08T15:16:51;98078.97;;;16.53;52.29
38912;BME280;28444;48.056;14.408;2023-05-08T15:19:38;98085.94;;;16.54;50.65
38912;BME280;28444;48.056;14.408;2023-05-08T15:22:25;98072.72;;;16.53;50.22
38912;BME280;28444;48.056;14.408;2023-05-08T15:25:14;98073.97;;;16.61;51.88